createdAt,value
2019-05-19T00:00:59.118Z,64.90
2019-05-19T00:01:59.109Z,64.59
2019-05-19T00:02:59.107Z,64.79
2019-05-19T00:03:59.124Z,65.10
2019-05-19T00:04:59.091Z,64.49
2019-05-19T00:05:59.069Z,64.79
2019-05-19T00:06:59.069Z,65.40
2019-05-19T00:07:59.055Z,65.10
2019-05-19T00:08:59.041Z,64.90
2019-05-19T00:09:59.016Z,65.40
2019-05-19T00:10:59.049Z,64.59
2019-05-19T00:11:59.006Z,65.20
2019-05-19T00:12:58.998Z,64.59
2019-05-19T00:13:58.980Z,65.20
2019-05-19T00:14:58.963Z,65.40
2019-05-19T00:15:58.980Z,64.90
2019-05-19T00:16:58.956Z,65.20
2019-05-19T00:17:58.936Z,64.79
2019-05-19T00:18:58.921Z,65.33
2019-05-19T00:19:58.913Z,65.43
2019-05-19T00:20:58.892Z,65.73
2019-05-19T00:21:58.949Z,66.21
2019-05-19T00:22:58.878Z,66.24
2019-05-19T00:23:59.880Z,66.04
2019-05-19T00:24:58.847Z,65.94
2019-05-19T00:25:58.901Z,65.84
2019-05-19T00:26:58.837Z,66.44
2019-05-19T00:27:58.825Z,66.44
2019-05-19T00:28:58.815Z,66.58
2019-05-19T00:29:58.797Z,66.58
2019-05-19T00:30:58.784Z,67.39
2019-05-19T00:31:58.784Z,67.42
2019-05-19T00:32:58.781Z,67.32
2019-05-19T00:33:58.758Z,67.62
2019-05-19T00:34:58.742Z,68.02
2019-05-19T00:35:58.747Z,67.82
2019-05-19T00:36:58.713Z,68.33
2019-05-19T00:37:58.776Z,68.13
2019-05-19T00:38:58.716Z,68.33
2019-05-19T00:39:58.690Z,67.93
2019-05-19T00:40:58.685Z,68.13
2019-05-19T00:41:58.658Z,68.43
2019-05-19T00:42:58.657Z,68.33
2019-05-19T00:43:58.647Z,67.82
2019-05-19T00:44:58.637Z,67.72
2019-05-19T00:45:58.618Z,68.53
2019-05-19T00:46:58.614Z,67.62
2019-05-19T00:47:58.604Z,67.62
2019-05-19T00:48:58.593Z,67.72
2019-05-19T00:49:58.579Z,66.98
2019-05-19T00:50:58.590Z,66.58
2019-05-19T00:51:58.564Z,66.98
2019-05-19T00:52:58.549Z,67.39
2019-05-19T00:53:58.566Z,67.99
2019-05-19T00:54:58.522Z,67.29
2019-05-19T00:55:58.525Z,66.81
2019-05-19T00:56:58.507Z,67.39
2019-05-19T00:57:58.531Z,68.50
2019-05-19T00:58:58.479Z,67.08
2019-05-19T00:59:58.464Z,66.58
2019-05-19T01:00:58.456Z,65.77
2019-05-19T01:01:58.448Z,66.17
2019-05-19T01:02:58.464Z,66.47
2019-05-19T01:03:58.428Z,66.88
2019-05-19T01:04:58.411Z,66.78
2019-05-19T01:05:58.406Z,66.78
2019-05-19T01:06:58.438Z,66.58
2019-05-19T01:07:58.395Z,65.90
2019-05-19T01:08:58.371Z,66.00
2019-05-19T01:09:58.362Z,66.58
2019-05-19T01:10:58.345Z,66.20
2019-05-19T01:11:58.333Z,66.91
2019-05-19T01:12:58.334Z,67.01
2019-05-19T01:13:58.323Z,66.50
2019-05-19T01:14:58.296Z,66.61
2019-05-19T01:15:58.290Z,66.61
2019-05-19T01:16:58.280Z,67.55
2019-05-19T01:17:58.264Z,67.05
2019-05-19T01:18:58.284Z,67.05
2019-05-19T01:19:58.264Z,67.76
2019-05-19T01:20:58.242Z,67.45
2019-05-19T01:21:58.222Z,67.05
2019-05-19T01:22:58.218Z,67.45
2019-05-19T01:23:58.203Z,67.55
2019-05-19T01:24:58.213Z,67.14
2019-05-19T01:25:58.186Z,67.25
2019-05-19T01:26:58.174Z,67.55
2019-05-19T01:27:58.170Z,67.85
2019-05-19T01:28:58.146Z,67.96
2019-05-19T01:29:58.142Z,67.35
2019-05-19T01:30:58.128Z,67.25
2019-05-19T01:31:58.112Z,67.45
2019-05-19T01:32:58.102Z,67.05
2019-05-19T01:33:58.138Z,67.76
2019-05-19T01:34:58.086Z,67.25
2019-05-19T01:35:58.074Z,67.35
2019-05-19T01:36:58.117Z,67.25
2019-05-19T01:37:58.082Z,67.65
2019-05-19T01:38:58.066Z,67.25
2019-05-19T01:39:58.022Z,66.94
2019-05-19T01:40:58.012Z,67.05
2019-05-19T01:41:58.015Z,67.35
2019-05-19T01:42:57.998Z,67.85
2019-05-19T01:43:57.994Z,67.35
2019-05-19T01:44:57.977Z,67.85
2019-05-19T01:45:57.960Z,67.96
2019-05-19T01:46:57.964Z,67.25
2019-05-19T01:47:57.949Z,67.14
2019-05-19T01:48:57.936Z,67.65
2019-05-19T01:50:16.593Z,66.64
2019-05-19T01:50:58.902Z,66.50
2019-05-19T01:51:57.903Z,66.61
2019-05-19T01:52:57.886Z,66.71
2019-05-19T01:53:57.886Z,66.61
2019-05-19T01:54:57.917Z,66.61
2019-05-19T01:55:57.851Z,66.61
2019-05-19T01:56:57.844Z,66.30
2019-05-19T01:57:57.828Z,66.10
2019-05-19T01:58:57.833Z,66.50
2019-05-19T01:59:57.800Z,66.71
2019-05-19T02:00:57.804Z,66.10
2019-05-19T02:01:57.791Z,66.10
2019-05-19T02:02:57.775Z,66.41
2019-05-19T02:03:57.784Z,66.94
2019-05-19T02:04:57.763Z,66.81
2019-05-19T02:05:57.745Z,66.74
2019-05-19T02:06:57.742Z,66.33
2019-05-19T02:07:57.738Z,66.84
2019-05-19T02:08:57.707Z,66.64
2019-05-19T02:09:57.699Z,66.74
2019-05-19T02:10:57.739Z,66.64
2019-05-19T02:11:57.695Z,67.28
2019-05-19T02:12:57.680Z,67.18
2019-05-19T02:13:57.679Z,67.18
2019-05-19T02:14:57.638Z,67.38
2019-05-19T02:15:57.643Z,67.08
2019-05-19T02:16:57.637Z,67.38
2019-05-19T02:17:57.625Z,67.89
2019-05-19T02:18:57.604Z,67.48
2019-05-19T02:19:57.589Z,67.38
2019-05-19T02:20:57.573Z,67.05
2019-05-19T02:21:57.569Z,67.85
2019-05-19T02:22:57.555Z,67.45
2019-05-19T02:23:57.566Z,67.25
2019-05-19T02:24:57.535Z,66.94
2019-05-19T02:25:57.525Z,66.94
2019-05-19T02:26:57.585Z,67.14
2019-05-19T02:27:57.500Z,67.14
2019-05-19T02:28:57.497Z,67.05
2019-05-19T02:29:57.479Z,67.25
2019-05-19T02:30:57.473Z,67.14
2019-05-19T02:31:57.494Z,66.64
2019-05-19T02:32:57.450Z,66.54
2019-05-19T02:33:57.444Z,67.35
2019-05-19T02:34:57.424Z,67.14
2019-05-19T02:35:57.416Z,67.35
2019-05-19T02:36:57.403Z,67.28
2019-05-19T02:37:57.398Z,68.36
2019-05-19T02:38:57.384Z,68.19
2019-05-19T02:39:57.409Z,67.99
2019-05-19T02:40:57.367Z,67.58
2019-05-19T02:41:57.395Z,67.79
2019-05-19T02:42:57.337Z,67.18
2019-05-19T02:43:57.375Z,68.09
2019-05-19T02:44:57.352Z,67.68
2019-05-19T02:45:57.302Z,68.29
2019-05-19T02:46:57.297Z,68.40
2019-05-19T02:47:57.318Z,68.70
2019-05-19T02:48:57.274Z,68.40
2019-05-19T02:49:57.281Z,68.40
2019-05-19T02:50:57.250Z,67.79
2019-05-19T02:51:57.240Z,67.68
2019-05-19T02:52:57.237Z,68.40
2019-05-19T02:53:57.234Z,67.68
2019-05-19T02:54:57.214Z,68.80
2019-05-19T02:55:57.218Z,68.29
2019-05-19T02:56:57.185Z,68.60
2019-05-19T02:57:57.173Z,68.19
2019-05-19T02:58:57.174Z,69.20
2019-05-19T02:59:57.145Z,68.80
2019-05-19T03:00:57.146Z,69.24
2019-05-19T03:01:57.152Z,68.93
2019-05-19T03:02:57.123Z,68.83
2019-05-19T03:03:57.119Z,69.24
2019-05-19T03:04:57.133Z,69.13
2019-05-19T03:05:57.086Z,68.90
2019-05-19T03:06:57.085Z,69.00
2019-05-19T03:07:57.060Z,68.70
2019-05-19T03:08:57.054Z,68.60
2019-05-19T03:09:57.044Z,68.90
2019-05-19T03:10:57.031Z,68.40
2019-05-19T03:11:57.018Z,68.80
2019-05-19T03:12:57.015Z,68.52
2019-05-19T03:13:57.017Z,68.70
2019-05-19T03:14:56.989Z,68.52
2019-05-19T03:15:56.989Z,68.73
2019-05-19T03:16:56.977Z,68.73
2019-05-19T03:17:56.954Z,69.03
2019-05-19T03:18:56.950Z,69.13
2019-05-19T03:19:56.930Z,69.13
2019-05-19T03:21:10.423Z,69.37
2019-05-19T03:21:57.910Z,69.34
2019-05-19T03:22:56.900Z,69.24
2019-05-19T03:23:56.889Z,69.37
2019-05-19T03:24:56.883Z,69.17
2019-05-19T03:25:56.865Z,69.47
2019-05-19T03:26:56.859Z,69.47
2019-05-19T03:27:56.960Z,69.57
2019-05-19T03:28:56.831Z,69.98
2019-05-19T03:29:56.846Z,69.68
2019-05-19T03:30:56.851Z,69.37
2019-05-19T03:31:56.805Z,69.37
2019-05-19T03:32:56.811Z,69.37
2019-05-19T03:33:56.795Z,69.47
2019-05-19T03:34:56.769Z,69.71
2019-05-19T03:35:56.770Z,70.08
2019-05-19T03:36:56.772Z,69.91
2019-05-19T03:37:56.737Z,69.57
2019-05-19T03:38:56.759Z,69.71
2019-05-19T03:39:56.713Z,69.57
2019-05-19T03:40:56.728Z,68.96
2019-05-19T03:41:56.700Z,69.37
2019-05-19T03:42:56.683Z,69.17
2019-05-19T03:43:56.670Z,69.47
2019-05-19T03:44:56.672Z,69.07
2019-05-19T03:45:56.650Z,69.37
2019-05-19T03:46:56.638Z,69.17
2019-05-19T03:47:56.627Z,69.10
2019-05-19T03:48:56.611Z,69.27
2019-05-19T03:49:56.605Z,69.37
2019-05-19T03:50:56.605Z,69.27
2019-05-19T03:51:56.583Z,69.37
2019-05-19T03:52:56.567Z,69.71
2019-05-19T03:53:56.549Z,69.71
2019-05-19T03:54:56.553Z,69.40
2019-05-19T03:55:56.539Z,69.30
2019-05-19T03:56:56.532Z,69.68
2019-05-19T03:57:56.512Z,69.51
2019-05-19T03:58:56.517Z,69.78
2019-05-19T03:59:56.490Z,69.60
2019-05-19T04:00:56.489Z,69.37
2019-05-19T04:01:56.481Z,68.96
2019-05-19T04:02:56.453Z,69.17
2019-05-19T04:03:56.450Z,68.52
2019-05-19T04:04:56.439Z,68.96
2019-05-19T04:05:56.431Z,68.63
2019-05-19T04:06:56.418Z,68.73
2019-05-19T04:07:56.404Z,68.32
2019-05-19T04:08:56.400Z,68.52
2019-05-19T04:09:56.390Z,68.43
2019-05-19T04:10:56.399Z,68.32
2019-05-19T04:11:56.353Z,68.43
2019-05-19T04:12:56.358Z,68.02
2019-05-19T04:13:56.341Z,67.72
2019-05-19T04:14:56.327Z,67.89
2019-05-19T04:15:56.319Z,68.52
2019-05-19T04:16:56.303Z,68.43
2019-05-19T04:17:56.301Z,68.60
2019-05-19T04:18:56.302Z,68.40
2019-05-19T04:19:56.270Z,67.92
2019-05-19T04:20:56.267Z,67.79
2019-05-19T04:21:56.314Z,68.40
2019-05-19T04:22:56.248Z,68.43
2019-05-19T04:23:56.230Z,68.40
2019-05-19T04:24:56.221Z,68.09
2019-05-19T04:25:56.210Z,67.79
2019-05-19T04:26:56.192Z,67.18
2019-05-19T04:27:56.193Z,67.58
2019-05-19T04:28:56.185Z,67.28
2019-05-19T04:29:56.158Z,67.58
2019-05-19T04:30:56.143Z,67.08
2019-05-19T04:31:56.137Z,67.99
2019-05-19T04:32:56.123Z,68.09
2019-05-19T04:33:56.165Z,67.79
2019-05-19T04:34:56.106Z,67.58
2019-05-19T04:35:57.487Z,67.89
2019-05-19T04:36:56.077Z,68.80
2019-05-19T04:37:56.075Z,68.40
2019-05-19T04:38:56.161Z,67.79
2019-05-19T04:39:56.052Z,68.60
2019-05-19T04:40:56.050Z,68.90
2019-05-19T04:41:56.027Z,68.40
2019-05-19T04:42:56.012Z,68.19
2019-05-19T04:43:56.016Z,68.66
2019-05-19T04:44:55.991Z,67.85
2019-05-19T04:45:56.023Z,66.94
2019-05-19T04:46:55.993Z,68.26
2019-05-19T04:47:55.961Z,67.52
2019-05-19T04:48:55.958Z,66.94
2019-05-19T04:49:55.941Z,67.14
2019-05-19T04:50:55.933Z,68.46
2019-05-19T04:52:05.883Z,67.22
2019-05-19T04:52:56.906Z,67.11
2019-05-19T04:53:55.891Z,67.72
2019-05-19T04:54:55.885Z,67.62
2019-05-19T04:55:55.886Z,67.22
2019-05-19T04:56:55.858Z,66.88
2019-05-19T04:57:55.864Z,66.58
2019-05-19T04:58:55.840Z,66.58
2019-05-19T04:59:55.825Z,66.78
2019-05-19T05:00:55.825Z,66.67
2019-05-19T05:01:55.835Z,65.56
2019-05-19T05:02:55.815Z,65.56
2019-05-19T05:03:55.804Z,66.98
2019-05-19T05:04:55.774Z,66.07
2019-05-19T05:05:55.760Z,65.53
2019-05-19T05:06:55.755Z,64.62
2019-05-19T05:07:55.736Z,65.26
2019-05-19T05:08:55.727Z,66.55
2019-05-19T05:09:55.718Z,64.93
2019-05-19T05:10:55.712Z,65.03
2019-05-19T05:11:55.700Z,66.44
2019-05-19T05:12:55.688Z,66.04
2019-05-19T05:13:55.676Z,65.43
2019-05-19T05:14:55.662Z,65.84
2019-05-19T05:15:55.660Z,65.94
2019-05-19T05:16:55.647Z,64.93
2019-05-19T05:17:55.644Z,65.00
2019-05-19T05:18:55.621Z,65.10
2019-05-19T05:19:55.613Z,64.59
2019-05-19T05:20:55.604Z,64.59
2019-05-19T05:21:55.589Z,64.70
2019-05-19T05:22:55.578Z,65.20
2019-05-19T05:23:55.629Z,65.40
2019-05-19T05:24:55.564Z,65.27
2019-05-19T05:25:55.542Z,65.37
2019-05-19T05:26:55.550Z,64.16
2019-05-19T05:27:55.528Z,63.96
2019-05-19T05:28:55.514Z,64.79
2019-05-19T05:29:55.508Z,65.27
2019-05-19T05:30:55.502Z,65.20
2019-05-19T05:31:55.482Z,64.39
2019-05-19T05:32:55.467Z,63.78
2019-05-19T05:33:55.450Z,62.87
2019-05-19T05:34:55.444Z,64.19
2019-05-19T05:35:55.428Z,64.67
2019-05-19T05:36:55.429Z,64.90
2019-05-19T05:37:55.415Z,64.70
2019-05-19T05:38:55.406Z,64.67
2019-05-19T05:39:55.387Z,64.76
2019-05-19T05:40:55.386Z,63.96
2019-05-19T05:41:55.371Z,63.85
2019-05-19T05:42:55.358Z,62.95
2019-05-19T05:43:55.358Z,63.05
2019-05-19T05:44:55.360Z,64.36
2019-05-19T05:45:55.335Z,64.26
2019-05-19T05:46:55.319Z,63.55
2019-05-19T05:47:55.308Z,63.22
2019-05-19T05:48:55.300Z,63.25
2019-05-19T05:49:55.297Z,63.05
2019-05-19T05:50:55.268Z,63.05
2019-05-19T05:51:55.260Z,63.15
2019-05-19T05:52:55.248Z,63.15
2019-05-19T05:53:55.240Z,62.82
2019-05-19T05:54:55.229Z,63.93
2019-05-19T05:55:55.234Z,64.56
2019-05-19T05:56:55.205Z,64.06
2019-05-19T05:57:55.201Z,64.23
2019-05-19T05:58:55.172Z,63.22
2019-05-19T05:59:55.172Z,64.33
2019-05-19T06:00:55.174Z,63.02
2019-05-19T06:01:55.154Z,62.92
2019-05-19T06:02:55.135Z,63.22
2019-05-19T06:03:55.130Z,62.82
2019-05-19T06:04:55.113Z,63.12
2019-05-19T06:05:55.136Z,62.92
2019-05-19T06:06:55.152Z,62.68
2019-05-19T06:07:55.095Z,63.79
2019-05-19T06:08:55.074Z,63.29
2019-05-19T06:09:55.062Z,63.42
2019-05-19T06:10:55.050Z,64.20
2019-05-19T06:11:55.050Z,63.70
2019-05-19T06:12:55.037Z,63.79
2019-05-19T06:13:55.021Z,63.90
2019-05-19T06:14:55.001Z,64.00
2019-05-19T06:15:54.988Z,62.88
2019-05-19T06:16:54.993Z,64.30
2019-05-19T06:17:54.986Z,64.00
2019-05-19T06:18:56.768Z,62.68
2019-05-19T06:19:54.954Z,64.00
2019-05-19T06:20:54.945Z,62.99
2019-05-19T06:21:54.945Z,62.85
2019-05-19T06:22:56.819Z,63.09
2019-05-19T06:23:54.912Z,62.85
2019-05-19T06:24:54.925Z,62.96
2019-05-19T06:25:54.880Z,63.26
2019-05-19T06:26:54.880Z,61.75
2019-05-19T06:27:54.879Z,62.45
2019-05-19T06:28:54.850Z,61.95
2019-05-19T06:29:54.848Z,62.55
2019-05-19T06:30:54.847Z,61.61
2019-05-19T06:31:54.819Z,61.41
2019-05-19T06:32:54.800Z,62.02
2019-05-19T06:33:54.794Z,62.93
2019-05-19T06:34:54.781Z,61.61
2019-05-19T06:35:54.775Z,61.18
2019-05-19T06:36:55.218Z,61.89
2019-05-19T06:37:54.750Z,62.09
2019-05-19T06:38:54.729Z,61.69
2019-05-19T06:39:54.725Z,61.39
2019-05-19T06:40:54.725Z,61.99
2019-05-19T06:41:54.714Z,61.69
2019-05-19T06:42:54.775Z,61.79
2019-05-19T06:43:54.678Z,61.76
2019-05-19T06:44:54.672Z,60.72
2019-05-19T06:45:54.653Z,59.46
2019-05-19T06:46:54.650Z,58.53
2019-05-19T06:47:54.640Z,59.53
2019-05-19T06:48:54.627Z,58.62
2019-05-19T06:49:54.625Z,58.83
2019-05-19T06:50:54.608Z,58.60
2019-05-19T06:51:54.622Z,57.50
2019-05-19T06:52:54.596Z,57.90
2019-05-19T06:53:54.574Z,58.40
2019-05-19T06:54:54.580Z,57.79
2019-05-19T06:55:54.544Z,56.31
2019-05-19T06:56:54.554Z,58.02
2019-05-19T06:57:54.519Z,57.02
2019-05-19T06:58:54.522Z,58.12
2019-05-19T06:59:54.516Z,58.22
2019-05-19T07:00:54.526Z,57.32
2019-05-19T07:01:54.480Z,57.42
2019-05-19T07:02:54.472Z,56.92
2019-05-19T07:03:54.461Z,56.92
2019-05-19T07:04:54.457Z,58.12
2019-05-19T07:05:54.451Z,58.12
2019-05-19T07:06:54.473Z,57.22
2019-05-19T07:07:54.423Z,58.33
2019-05-19T07:08:54.407Z,56.62
2019-05-19T07:09:58.637Z,56.62
2019-05-19T07:10:54.385Z,57.19
2019-05-19T07:11:54.373Z,57.39
2019-05-19T07:12:54.355Z,57.09
2019-05-19T07:13:54.389Z,58.80
2019-05-19T07:14:54.356Z,56.79
2019-05-19T07:15:54.341Z,56.29
2019-05-19T07:16:54.330Z,57.59
2019-05-19T07:17:54.325Z,58.20
2019-05-19T07:18:54.335Z,57.19
2019-05-19T07:19:54.284Z,56.59
2019-05-19T07:20:54.287Z,56.38
2019-05-19T07:21:54.257Z,56.66
2019-05-19T07:22:54.290Z,58.47
2019-05-19T07:23:54.251Z,57.37
2019-05-19T07:24:54.237Z,57.87
2019-05-19T07:25:54.219Z,57.37
2019-05-19T07:26:54.209Z,56.36
2019-05-19T07:27:54.199Z,57.37
2019-05-19T07:28:54.195Z,57.87
2019-05-19T07:29:54.238Z,57.17
2019-05-19T07:30:54.177Z,58.07
2019-05-19T07:31:54.148Z,57.87
2019-05-19T07:32:54.186Z,55.35
2019-05-19T07:33:54.133Z,57.54
2019-05-19T07:34:54.129Z,57.94
2019-05-19T07:35:54.101Z,57.44
2019-05-19T07:36:54.123Z,56.54
2019-05-19T07:37:54.100Z,57.64
2019-05-19T07:38:54.066Z,57.64
2019-05-19T07:39:54.084Z,56.93
2019-05-19T07:40:54.064Z,56.93
2019-05-19T07:41:54.038Z,56.30
2019-05-19T07:42:54.026Z,56.71
2019-05-19T07:43:54.034Z,56.51
2019-05-19T07:44:54.023Z,56.30
2019-05-19T07:45:54.007Z,55.80
2019-05-19T07:46:53.986Z,56.21
2019-05-19T07:47:53.968Z,51.49
2019-05-19T07:48:53.966Z,51.67
2019-05-19T07:49:53.973Z,52.44
2019-05-19T07:50:53.941Z,53.27
2019-05-19T07:51:53.935Z,52.75
2019-05-19T07:52:53.918Z,52.14
2019-05-19T07:53:53.906Z,52.22
2019-05-19T07:54:53.901Z,49.81
2019-05-19T07:55:53.889Z,49.99
2019-05-19T07:56:53.868Z,48.08
2019-05-19T07:57:53.872Z,48.38
2019-05-19T07:58:53.875Z,49.19
2019-05-19T07:59:54.914Z,48.16
2019-05-19T08:00:53.841Z,48.26
2019-05-19T08:01:53.862Z,47.26
2019-05-19T08:02:53.810Z,47.56
2019-05-19T08:03:53.790Z,49.07
2019-05-19T08:04:53.784Z,47.84
2019-05-19T08:05:56.894Z,49.14
2019-05-19T08:06:53.769Z,46.62
2019-05-19T08:07:53.753Z,45.29
2019-05-19T08:08:53.741Z,44.95
2019-05-19T08:09:53.745Z,44.45
2019-05-19T08:10:53.715Z,46.25
2019-05-19T08:11:53.715Z,46.27
2019-05-19T08:12:53.716Z,44.78
2019-05-19T08:13:53.686Z,45.47
2019-05-19T08:14:53.713Z,44.57
2019-05-19T08:15:53.657Z,45.17
2019-05-19T08:16:53.653Z,44.87
2019-05-19T08:17:53.643Z,44.27
2019-05-19T08:18:53.640Z,44.95
2019-05-19T08:19:53.620Z,43.85
2019-05-19T08:20:53.608Z,45.45
2019-05-19T08:21:53.605Z,43.95
2019-05-19T08:22:53.589Z,43.95
2019-05-19T08:24:00.453Z,43.55
2019-05-19T08:24:54.587Z,43.75
2019-05-19T08:25:53.553Z,44.95
2019-05-19T08:26:53.542Z,45.75
2019-05-19T08:27:53.532Z,45.25
2019-05-19T08:28:53.530Z,45.25
2019-05-19T08:29:53.539Z,45.85
2019-05-19T08:30:53.503Z,44.45
2019-05-19T08:31:53.537Z,44.47
2019-05-19T08:32:53.468Z,44.35
2019-05-19T08:33:53.478Z,45.07
2019-05-19T08:34:53.451Z,44.45
2019-05-19T08:35:53.451Z,44.25
2019-05-19T08:36:53.435Z,45.05
2019-05-19T08:37:53.426Z,44.65
2019-05-19T08:38:53.410Z,44.55
2019-05-19T08:39:53.408Z,45.85
2019-05-19T08:40:53.449Z,44.25
2019-05-19T08:41:53.397Z,45.43
2019-05-19T08:42:53.367Z,44.85
2019-05-19T08:43:53.576Z,45.53
2019-05-19T08:44:53.337Z,45.43
2019-05-19T08:45:53.338Z,44.63
2019-05-19T08:46:53.337Z,45.93
2019-05-19T08:47:53.315Z,45.33
2019-05-19T08:48:53.341Z,45.63
2019-05-19T08:49:53.295Z,45.93
2019-05-19T08:50:53.274Z,45.93
2019-05-19T08:51:53.276Z,45.53
2019-05-19T08:52:53.282Z,44.73
2019-05-19T08:53:53.246Z,45.43
2019-05-19T08:54:53.238Z,45.33
2019-05-19T08:55:53.231Z,45.43
2019-05-19T08:56:53.300Z,44.93
2019-05-19T08:57:53.210Z,45.43
2019-05-19T08:58:53.205Z,44.43
2019-05-19T08:59:53.184Z,45.33
2019-05-19T09:00:53.168Z,44.63
2019-05-19T09:01:53.156Z,45.90
2019-05-19T09:02:53.142Z,45.83
2019-05-19T09:03:53.140Z,46.03
2019-05-19T09:04:53.120Z,45.73
2019-05-19T09:05:53.120Z,45.23
2019-05-19T09:06:53.098Z,45.43
2019-05-19T09:07:53.096Z,44.63
2019-05-19T09:08:53.081Z,44.83
2019-05-19T09:09:53.086Z,43.73
2019-05-19T09:10:53.052Z,44.33
2019-05-19T09:11:53.054Z,43.83
2019-05-19T09:12:53.045Z,44.51
2019-05-19T09:13:53.034Z,43.83
2019-05-19T09:14:53.022Z,44.63
2019-05-19T09:15:53.012Z,44.13
2019-05-19T09:16:52.998Z,44.93
2019-05-19T09:17:54.263Z,45.01
2019-05-19T09:18:52.978Z,44.63
2019-05-19T09:19:52.960Z,44.01
2019-05-19T09:20:52.948Z,44.11
2019-05-19T09:21:52.931Z,44.41
2019-05-19T09:22:52.928Z,43.91
2019-05-19T09:23:52.916Z,44.79
2019-05-19T09:24:52.904Z,44.31
2019-05-19T09:25:52.894Z,44.89
2019-05-19T09:26:52.882Z,45.98
2019-05-19T09:27:52.866Z,45.06
2019-05-19T09:28:52.858Z,43.45
2019-05-19T09:29:52.848Z,42.61
2019-05-19T09:30:52.829Z,41.16
2019-05-19T09:31:52.835Z,39.71
2019-05-19T09:32:52.818Z,39.00
2019-05-19T09:33:52.800Z,39.43
2019-05-19T09:34:52.796Z,40.94
2019-05-19T09:35:52.850Z,41.85
2019-05-19T09:36:52.774Z,41.77
2019-05-19T09:37:52.765Z,43.46
2019-05-19T09:38:52.754Z,41.79
2019-05-19T09:39:52.737Z,41.82
2019-05-19T09:40:52.722Z,41.82
2019-05-19T09:41:52.726Z,41.71
2019-05-19T09:42:52.710Z,42.21
2019-05-19T09:43:52.702Z,41.91
2019-05-19T09:44:52.683Z,42.51
2019-05-19T09:45:52.672Z,42.01
2019-05-19T09:46:52.659Z,42.13
2019-05-19T09:47:52.682Z,43.82
2019-05-19T09:48:52.631Z,42.93
2019-05-19T09:49:52.649Z,43.03
2019-05-19T09:50:52.631Z,43.63
2019-05-19T09:51:52.757Z,43.73
2019-05-19T09:52:52.600Z,44.05
2019-05-19T09:53:52.595Z,44.15
2019-05-19T09:54:52.605Z,44.45
2019-05-19T09:55:52.597Z,44.35
2019-05-19T09:56:52.569Z,43.13
2019-05-19T09:57:52.550Z,41.96
2019-05-19T09:58:52.543Z,42.83
2019-05-19T09:59:52.543Z,42.93
2019-05-19T10:00:52.522Z,42.03
2019-05-19T10:01:52.502Z,42.73
2019-05-19T10:02:52.492Z,42.03
2019-05-19T10:03:52.547Z,41.74
2019-05-19T10:04:52.463Z,41.91
2019-05-19T10:05:52.463Z,41.91
2019-05-19T10:06:52.482Z,43.71
2019-05-19T10:07:52.428Z,44.01
2019-05-19T10:08:52.426Z,43.21
2019-05-19T10:09:52.411Z,42.61
2019-05-19T10:10:52.400Z,42.71
2019-05-19T10:11:52.414Z,42.01
2019-05-19T10:12:52.408Z,42.11
2019-05-19T10:13:52.482Z,43.41
2019-05-19T10:14:52.358Z,43.51
2019-05-19T10:15:52.422Z,43.71
2019-05-19T10:16:52.379Z,43.71
2019-05-19T10:17:52.347Z,42.81
2019-05-19T10:18:52.334Z,42.93
2019-05-19T10:19:52.298Z,43.30
2019-05-19T10:20:52.384Z,43.30
2019-05-19T10:21:52.303Z,43.01
2019-05-19T10:22:52.270Z,43.19
2019-05-19T10:23:52.270Z,43.19
2019-05-19T10:25:10.172Z,42.99
2019-05-19T10:25:53.235Z,42.89
2019-05-19T10:26:52.258Z,41.60
2019-05-19T10:27:52.212Z,40.78
2019-05-19T10:28:52.225Z,40.98
2019-05-19T10:29:52.214Z,40.18
2019-05-19T10:30:52.178Z,40.16
2019-05-19T10:31:54.349Z,40.05
2019-05-19T10:32:52.193Z,39.45
2019-05-19T10:33:52.171Z,39.54
2019-05-19T10:34:52.148Z,39.75
2019-05-19T10:35:52.158Z,39.05
2019-05-19T10:36:52.127Z,39.84
2019-05-19T10:37:52.112Z,39.65
2019-05-19T10:38:52.096Z,40.54
2019-05-19T10:39:52.096Z,39.45
2019-05-19T10:40:52.083Z,40.06
2019-05-19T10:41:52.087Z,39.65
2019-05-19T10:42:52.066Z,39.15
2019-05-19T10:43:52.041Z,39.45
2019-05-19T10:44:52.180Z,39.75
2019-05-19T10:45:52.030Z,39.13
2019-05-19T10:46:52.075Z,39.23
2019-05-19T10:47:52.021Z,39.83
2019-05-19T10:48:51.983Z,39.03
2019-05-19T10:49:51.982Z,39.41
2019-05-19T10:50:51.980Z,38.50
2019-05-19T10:51:51.954Z,38.17
2019-05-19T10:52:51.957Z,37.04
2019-05-19T10:53:51.935Z,35.60
2019-05-19T10:54:51.927Z,33.95
2019-05-19T10:55:51.926Z,32.90
2019-05-19T10:56:51.908Z,31.09
2019-05-19T10:57:51.903Z,29.77
2019-05-19T10:58:51.912Z,29.64
2019-05-19T10:59:51.867Z,29.05
2019-05-19T11:00:51.869Z,28.44
2019-05-19T11:01:51.853Z,28.93
2019-05-19T11:02:51.844Z,28.13
2019-05-19T11:03:51.923Z,28.40
2019-05-19T11:04:51.823Z,26.83
2019-05-19T11:05:51.804Z,26.92
2019-05-19T11:06:51.795Z,26.81
2019-05-19T11:07:51.814Z,26.51
2019-05-19T11:08:51.779Z,27.94
2019-05-19T11:09:51.775Z,29.38
2019-05-19T11:10:51.779Z,30.22
2019-05-19T11:11:51.855Z,31.45
2019-05-19T11:12:51.738Z,31.73
2019-05-19T11:13:51.725Z,32.45
2019-05-19T11:14:51.725Z,32.54
2019-05-19T11:15:51.709Z,30.82
2019-05-19T11:16:51.700Z,31.93
2019-05-19T11:17:51.681Z,32.73
2019-05-19T11:18:51.665Z,33.75
2019-05-19T11:19:51.663Z,33.59
2019-05-19T11:20:51.652Z,32.85
2019-05-19T11:21:51.653Z,32.80
2019-05-19T11:22:51.628Z,30.80
2019-05-19T11:23:51.619Z,29.79
2019-05-19T11:24:51.807Z,29.49
2019-05-19T11:25:52.006Z,28.89
2019-05-19T11:26:51.598Z,29.47
2019-05-19T11:27:51.583Z,28.77
2019-05-19T11:28:51.559Z,29.14
2019-05-19T11:29:51.555Z,29.02
2019-05-19T11:30:51.545Z,27.85
2019-05-19T11:31:51.534Z,29.87
2019-05-19T11:32:51.527Z,30.02
2019-05-19T11:33:51.517Z,31.24
2019-05-19T11:34:51.511Z,31.27
2019-05-19T11:35:51.483Z,31.24
2019-05-19T11:36:51.477Z,29.83
2019-05-19T11:37:51.473Z,30.31
2019-05-19T11:38:51.464Z,30.40
2019-05-19T11:39:51.449Z,28.50
2019-05-19T11:40:51.429Z,29.71
2019-05-19T11:41:51.438Z,31.14
2019-05-19T11:42:51.402Z,31.27
2019-05-19T11:43:51.404Z,32.07
2019-05-19T11:44:51.387Z,31.06
2019-05-19T11:45:51.377Z,30.32
2019-05-19T11:46:51.373Z,29.53
2019-05-19T11:47:51.367Z,29.93
2019-05-19T11:48:51.350Z,31.52
2019-05-19T11:49:51.406Z,31.52
2019-05-19T11:50:51.335Z,33.04
2019-05-19T11:51:51.317Z,32.97
2019-05-19T11:52:51.320Z,33.80
2019-05-19T11:53:51.321Z,34.91
2019-05-19T11:54:51.389Z,33.79
2019-05-19T11:56:04.321Z,32.07
2019-05-19T11:56:52.299Z,31.56
2019-05-19T11:57:51.275Z,31.54
2019-05-19T11:58:51.240Z,30.63
2019-05-19T11:59:51.249Z,29.83
2019-05-19T12:00:51.215Z,30.91
2019-05-19T12:01:51.219Z,30.32
2019-05-19T12:02:51.254Z,29.93
2019-05-19T12:03:51.253Z,31.21
2019-05-19T12:04:51.196Z,32.08
2019-05-19T12:05:51.158Z,31.20
2019-05-19T12:06:51.175Z,30.80
2019-05-19T12:07:51.208Z,31.01
2019-05-19T12:08:51.205Z,31.13
2019-05-19T12:09:51.135Z,31.34
2019-05-19T12:10:51.128Z,32.75
2019-05-19T12:11:51.132Z,33.28
2019-05-19T12:12:51.125Z,33.20
2019-05-19T12:13:51.088Z,34.89
2019-05-19T12:14:51.106Z,34.99
2019-05-19T12:15:51.111Z,33.82
2019-05-19T12:16:51.105Z,35.32
2019-05-19T12:17:51.064Z,35.52
2019-05-19T12:18:51.036Z,35.42
2019-05-19T12:19:51.040Z,35.91
2019-05-19T12:20:51.003Z,36.13
2019-05-19T12:21:51.019Z,36.13
2019-05-19T12:22:50.992Z,37.00
2019-05-19T12:23:51.068Z,37.40
2019-05-19T12:24:50.967Z,37.91
2019-05-19T12:25:51.085Z,38.62
2019-05-19T12:26:50.948Z,38.92
2019-05-19T12:27:50.940Z,39.22
2019-05-19T12:28:50.989Z,38.82
2019-05-19T12:29:50.920Z,39.51
2019-05-19T12:30:50.922Z,39.51
2019-05-19T12:31:50.923Z,40.23
2019-05-19T12:32:50.932Z,39.34
2019-05-19T12:33:52.317Z,39.53
2019-05-19T12:34:50.863Z,39.45
2019-05-19T12:35:50.885Z,39.53
2019-05-19T12:36:50.860Z,40.82
2019-05-19T12:37:50.872Z,41.24
2019-05-19T12:38:50.851Z,41.36
2019-05-19T12:39:50.836Z,40.96
2019-05-19T12:40:50.885Z,41.24
2019-05-19T12:41:50.803Z,41.33
2019-05-19T12:42:50.778Z,42.05
2019-05-19T12:43:50.782Z,42.33
2019-05-19T12:44:50.769Z,41.66
2019-05-19T12:45:50.805Z,41.63
2019-05-19T12:46:50.909Z,41.33
2019-05-19T12:47:50.755Z,42.13
2019-05-19T12:48:50.730Z,41.83
2019-05-19T12:49:50.697Z,42.03
2019-05-19T12:50:50.846Z,41.63
2019-05-19T12:51:50.689Z,41.71
2019-05-19T12:52:50.686Z,40.12